KCDW/CDW METAR and TAF weather

Enter ICAO airport designator
Station Type Date Time Source
KCDW METAR 2019/05/21 19:53 UTC NOAA

KCDW 211953Z AUTO 33015G25KT 10SM CLR 22/02 A2993 RMK AO2 PK WND 32027/1930 SLP138 T02220017


Station Type Date Time Source
KCDW Decoded METAR 2019/05/21 19:53 UTC NOAA

CALDWELL ESSEX COUNTY AIRPORT , NJ, United States (KCDW) 40-53N 074-17W 64M
May 21, 2019 - 03:53 PM EDT / 2019.05.21 1953 UTC
Wind: from the NNW (330 degrees) at 17 MPH (15 KT) gusting to 29 MPH (25 KT):0
Visibility: 10 mile(s):0
Sky conditions: clear
Temperature: 72.0 F (22.2 C)
Dew Point: 35.1 F (1.7 C)
Relative Humidity: 25%
Pressure (altimeter): 29.93 in. Hg (1013 hPa)
ob: KCDW 211953Z AUTO 33015G25KT 10SM CLR 22/02 A2993 RMK AO2 PK WND 32027/1930 SLP138 T02220017
cycle: 20

Station Type Date Time Source
KCDW TAF UTC NOAA

Error!

Example: see airport list